Time;durP1;ratioP1;P1;durP2;ratioP2;P2;SDS_P1;SDS_P2;PMS_P1;PMS_P2;Temp;Humidity;BMP_temperature;BMP_pressure;BME280_temperature;BME280_humidity;BME280_pressure;Samples;Min_cycle;Max_cycle;Signal;HPM_P1;HPM_P2
2022/10/02 00:01:51;;;;;;;;;;;16.80;65.40;;;;;;5029770;28;19920;-88
2022/10/02 00:04:22;;;;;;;;;;;16.80;65.30;;;;;;5013065;28;20047;-87
2022/10/02 00:06:48;;;;;;;;;;;16.90;65.10;;;;;;4997671;28;19921;-86
2022/10/02 00:09:20;;;;;;;;;;;16.90;65.10;;;;;;5028742;28;20008;-86
2022/10/02 00:11:48;;;;;;;;;;;16.90;65.20;;;;;;5030050;28;19966;-87
2022/10/02 00:14:17;;;;;;;;;;;16.80;64.80;;;;;;5010429;28;19932;-87
2022/10/02 00:16:47;;;;;;;;;;;16.80;64.60;;;;;;5024325;28;19924;-86
2022/10/02 00:19:15;;;;;;;;;;;16.80;64.30;;;;;;5030810;28;19937;-86
2022/10/02 00:21:50;;;;;;;;;;;16.70;64.20;;;;;;5031861;28;19913;-87
2022/10/02 00:24:17;;;;;;;;;;;16.70;64.30;;;;;;5014274;28;19971;-86
2022/10/02 00:26:58;;;;;;;;;;;16.60;64.10;;;;;;5014830;28;20327;-87
2022/10/02 00:29:32;;;;;;;;;;;16.50;63.90;;;;;;5028781;28;19983;-87
2022/10/02 00:31:58;;;;;;;;;;;16.50;63.80;;;;;;5036847;28;19919;-87
2022/10/02 00:34:37;;;;;;;;;;;16.40;63.70;;;;;;5014083;28;20000;-87
2022/10/02 00:37:05;;;;;;;;;;;16.30;63.60;;;;;;5029777;28;19913;-87
2022/10/02 00:39:36;;;;;;;;;;;16.30;63.60;;;;;;5029052;28;20022;-87
2022/10/02 00:42:13;;;;;;;;;;;16.20;63.80;;;;;;5014709;28;20435;-86
2022/10/02 00:44:45;;;;;;;;;;;16.20;63.80;;;;;;5030443;28;20437;-87
2022/10/02 00:47:30;;;;;;;;;;;16.10;63.60;;;;;;5027312;28;19913;-86
2022/10/02 00:49:55;;;;;;;;;;;16.10;63.60;;;;;;5025542;28;19917;-88
2022/10/02 00:52:27;;;;;;;;;;;16.00;63.70;;;;;;5028049;28;19928;-87
2022/10/02 00:55:02;;;;;;;;;;;16.00;63.60;;;;;;5028675;28;19917;-86
2022/10/02 00:57:46;;;;;;;;;;;16.00;63.80;;;;;;5027476;28;20017;-87
2022/10/02 01:00:16;;;;;;;;;;;15.90;63.80;;;;;;5011298;28;19910;-87
2022/10/02 01:02:48;;;;;;;;;;;15.90;63.80;;;;;;5023288;28;20547;-87
2022/10/02 01:05:14;;;;;;;;;;;15.80;63.80;;;;;;5012787;28;19928;-88
2022/10/02 01:07:41;;;;;;;;;;;15.80;63.70;;;;;;5012058;28;19932;-87
2022/10/02 01:10:11;;;;;;;;;;;15.80;63.70;;;;;;5028623;28;20287;-87
2022/10/02 01:12:37;;;;;;;;;;;15.80;63.80;;;;;;5030250;28;19917;-86
2022/10/02 01:15:10;;;;;;;;;;;15.80;63.90;;;;;;5010196;28;20584;-87
2022/10/02 01:17:35;;;;;;;;;;;15.70;64.10;;;;;;5027612;28;20063;-87
2022/10/02 01:20:04;;;;;;;;;;;15.70;63.80;;;;;;5030114;28;20007;-87
2022/10/02 01:22:39;;;;;;;;;;;15.70;63.90;;;;;;5022975;28;19944;-87
2022/10/02 01:25:05;;;;;;;;;;;15.60;63.70;;;;;;5011209;28;19921;-88
2022/10/02 01:27:32;;;;;;;;;;;15.60;63.60;;;;;;5012440;28;20421;-87
2022/10/02 01:30:03;;;;;;;;;;;15.50;63.70;;;;;;5014878;28;19928;-87
2022/10/02 01:32:28;;;;;;;;;;;15.50;63.60;;;;;;5030862;28;20082;-87
2022/10/02 01:34:55;;;;;;;;;;;15.50;63.50;;;;;;5031296;28;20019;-86
2022/10/02 01:37:22;;;;;;;;;;;15.50;63.40;;;;;;5040606;28;19968;-86
2022/10/02 01:39:48;;;;;;;;;;;15.40;63.60;;;;;;5012757;28;20437;-86
2022/10/02 01:42:14;;;;;;;;;;;15.50;63.90;;;;;;5003440;28;20424;-86
2022/10/02 01:44:40;;;;;;;;;;;15.50;63.90;;;;;;4998218;28;19943;-87
2022/10/02 01:47:10;;;;;;;;;;;15.50;64.00;;;;;;5031148;28;19913;-86
2022/10/02 01:49:36;;;;;;;;;;;15.50;64.30;;;;;;5030738;28;19914;-86
2022/10/02 01:52:01;;;;;;;;;;;15.50;64.60;;;;;;5028734;28;19920;-87
2022/10/02 01:54:27;;;;;;;;;;;15.50;64.70;;;;;;5018722;28;19917;-86
2022/10/02 01:56:59;;;;;;;;;;;15.60;65.00;;;;;;5012538;28;19913;-87
2022/10/02 01:59:43;;;;;;;;;;;15.70;65.30;;;;;;5030212;28;19944;-87
2022/10/02 02:02:28;;;;;;;;;;;15.70;65.10;;;;;;5030163;28;20363;-87
2022/10/02 02:04:56;;;;;;;;;;;15.70;65.30;;;;;;5028717;28;19979;-87
2022/10/02 02:07:24;;;;;;;;;;;15.90;65.80;;;;;;5011777;28;19917;-87
2022/10/02 02:09:59;;;;;;;;;;;16.00;66.00;;;;;;5016087;28;20000;-88
2022/10/02 02:12:36;;;;;;;;;;;16.20;66.20;;;;;;5011095;28;19924;-87
2022/10/02 02:15:05;;;;;;;;;;;16.30;66.30;;;;;;5012393;28;19960;-87
2022/10/02 02:17:44;;;;;;;;;;;16.50;66.30;;;;;;5030105;28;19951;-87
2022/10/02 02:20:17;;;;;;;;;;;16.70;66.30;;;;;;5012967;28;20365;-86
2022/10/02 02:22:44;;;;;;;;;;;16.80;66.30;;;;;;5030176;28;19913;-86
2022/10/02 02:25:17;;;;;;;;;;;16.90;66.30;;;;;;5030399;28;20027;-86
2022/10/02 02:27:48;;;;;;;;;;;17.00;66.20;;;;;;5029029;28;19979;-88
2022/10/02 02:30:15;;;;;;;;;;;17.10;66.30;;;;;;5009934;28;20008;-87
2022/10/02 02:32:51;;;;;;;;;;;17.20;66.20;;;;;;5029924;28;19921;-87
2022/10/02 02:35:28;;;;;;;;;;;17.30;66.20;;;;;;5023973;28;20423;-87
2022/10/02 02:37:56;;;;;;;;;;;17.30;66.10;;;;;;5012658;28;19917;-87
2022/10/02 02:40:24;;;;;;;;;;;17.40;66.10;;;;;;5011927;28;19920;-86
2022/10/02 02:42:56;;;;;;;;;;;17.50;66.00;;;;;;5010672;28;19956;-87
2022/10/02 02:45:23;;;;;;;;;;;17.50;66.00;;;;;;5011154;28;20465;-87
2022/10/02 02:47:54;;;;;;;;;;;17.60;65.90;;;;;;5030392;28;19913;-87
2022/10/02 02:50:25;;;;;;;;;;;17.50;65.60;;;;;;5027908;28;20249;-87
2022/10/02 02:52:53;;;;;;;;;;;17.50;65.50;;;;;;5026835;28;20334;-87
2022/10/02 02:55:22;;;;;;;;;;;17.50;65.40;;;;;;5009595;28;19917;-87
2022/10/02 02:57:55;;;;;;;;;;;17.50;65.40;;;;;;5029652;28;19917;-87
2022/10/02 03:00:22;;;;;;;;;;;17.50;65.30;;;;;;5011698;28;20394;-87
2022/10/02 03:02:49;;;;;;;;;;;17.50;65.20;;;;;;5028196;28;20265;-86
2022/10/02 03:05:16;;;;;;;;;;;17.50;65.20;;;;;;5010732;28;19921;-86
2022/10/02 03:07:46;;;;;;;;;;;17.50;65.30;;;;;;5012584;28;19964;-86
2022/10/02 03:10:14;;;;;;;;;;;17.50;65.30;;;;;;5021606;28;19909;-85
2022/10/02 03:12:51;;;;;;;;;;;17.40;65.30;;;;;;5030014;28;19966;-87
2022/10/02 03:15:22;;;;;;;;;;;17.50;65.40;;;;;;5021658;28;19925;-87
2022/10/02 03:18:07;;;;;;;;;;;17.40;65.60;;;;;;5013448;28;19920;-86
2022/10/02 03:20:32;;;;;;;;;;;17.40;65.60;;;;;;5015855;28;19914;-86
2022/10/02 03:23:13;;;;;;;;;;;17.40;65.60;;;;;;4994974;28;19967;-86
2022/10/02 03:25:38;;;;;;;;;;;17.40;65.70;;;;;;5000580;28;19929;-86
2022/10/02 03:28:22;;;;;;;;;;;17.40;65.70;;;;;;5022609;28;19917;-86
2022/10/02 03:30:49;;;;;;;;;;;17.50;65.70;;;;;;5027436;28;19929;-86
2022/10/02 03:33:15;;;;;;;;;;;17.50;65.80;;;;;;5032813;28;19925;-86
2022/10/02 03:35:42;;;;;;;;;;;17.50;65.80;;;;;;5031185;28;20356;-86
2022/10/02 03:38:09;;;;;;;;;;;17.60;65.80;;;;;;5031065;28;19952;-86
2022/10/02 03:40:35;;;;;;;;;;;17.70;65.70;;;;;;5010277;28;20022;-86
2022/10/02 03:43:00;;;;;;;;;;;17.70;65.70;;;;;;5005511;28;20365;-86
2022/10/02 03:45:26;;;;;;;;;;;17.70;65.80;;;;;;5029738;28;19921;-86
2022/10/02 03:47:52;;;;;;;;;;;17.70;65.80;;;;;;5020807;28;19929;-87
2022/10/02 03:50:17;;;;;;;;;;;17.70;66.00;;;;;;5012854;28;19979;-87
2022/10/02 03:52:43;;;;;;;;;;;17.80;65.90;;;;;;5030547;28;19974;-87
2022/10/02 03:55:26;;;;;;;;;;;17.80;66.10;;;;;;5031181;28;19916;-87
2022/10/02 03:57:53;;;;;;;;;;;17.80;66.00;;;;;;5031441;28;19921;-87
2022/10/02 04:00:21;;;;;;;;;;;17.80;66.10;;;;;;5012862;28;19955;-87
2022/10/02 04:02:48;;;;;;;;;;;17.80;66.00;;;;;;5022919;28;19944;-86
2022/10/02 04:05:32;;;;;;;;;;;17.90;66.10;;;;;;5029499;28;19924;-86
2022/10/02 04:08:08;;;;;;;;;;;17.90;66.00;;;;;;5040849;28;19917;-86
2022/10/02 04:10:43;;;;;;;;;;;17.80;66.00;;;;;;5012512;28;19917;-86
2022/10/02 04:13:28;;;;;;;;;;;17.90;66.10;;;;;;5029887;28;19917;-86
2022/10/02 04:16:05;;;;;;;;;;;17.90;65.90;;;;;;5032483;28;19913;-86
2022/10/02 04:18:35;;;;;;;;;;;17.80;65.70;;;;;;5026961;28;19917;-86
2022/10/02 04:21:04;;;;;;;;;;;17.80;65.60;;;;;;5013159;28;19919;-87
2022/10/02 04:23:36;;;;;;;;;;;17.80;65.20;;;;;;5029693;28;20291;-87
2022/10/02 04:26:16;;;;;;;;;;;17.70;64.60;;;;;;5031072;28;19921;-87
2022/10/02 04:28:45;;;;;;;;;;;17.50;64.30;;;;;;5022406;28;19991;-87
2022/10/02 04:31:12;;;;;;;;;;;17.50;64.10;;;;;;5032494;28;19917;-87
2022/10/02 04:33:37;;;;;;;;;;;17.30;63.70;;;;;;5039764;28;19925;-87
2022/10/02 04:36:06;;;;;;;;;;;17.30;63.70;;;;;;5052307;28;19978;-86
2022/10/02 04:38:39;;;;;;;;;;;17.20;63.70;;;;;;5051787;28;20283;-86
2022/10/02 04:41:20;;;;;;;;;;;17.10;63.60;;;;;;5034526;28;20421;-87
2022/10/02 04:43:54;;;;;;;;;;;17.00;63.40;;;;;;5052632;28;19916;-87
2022/10/02 04:46:22;;;;;;;;;;;17.00;63.40;;;;;;5014640;28;20356;-87
2022/10/02 04:49:01;;;;;;;;;;;16.80;63.60;;;;;;5013571;28;19925;-87
2022/10/02 04:51:39;;;;;;;;;;;16.80;63.90;;;;;;5014210;28;19960;-86
2022/10/02 04:54:27;;;;;;;;;;;16.80;64.20;;;;;;5031409;28;19924;-87
2022/10/02 04:57:05;;;;;;;;;;;16.80;64.20;;;;;;5029172;28;19921;-87
2022/10/02 04:59:40;;;;;;;;;;;16.70;64.40;;;;;;5025651;28;19922;-87
2022/10/02 05:02:13;;;;;;;;;;;16.70;64.70;;;;;;5002511;28;20352;-87
2022/10/02 05:05:02;;;;;;;;;;;16.70;64.80;;;;;;5010871;28;20024;-87
2022/10/02 05:07:34;;;;;;;;;;;16.80;65.20;;;;;;4993055;28;19929;-87
2022/10/02 05:10:18;;;;;;;;;;;16.80;65.20;;;;;;5029530;28;20059;-87
2022/10/02 05:12:50;;;;;;;;;;;16.80;65.10;;;;;;5029730;28;19917;-87
2022/10/02 05:15:25;;;;;;;;;;;16.80;65.40;;;;;;5011159;28;19920;-87
2022/10/02 05:18:05;;;;;;;;;;;17.00;65.40;;;;;;5028964;28;19917;-87
2022/10/02 05:20:49;;;;;;;;;;;17.00;65.60;;;;;;5028782;28;19968;-86
2022/10/02 05:23:15;;;;;;;;;;;17.10;65.70;;;;;;5010486;28;19917;-88
2022/10/02 05:25:46;;;;;;;;;;;17.20;65.60;;;;;;5011422;28;20260;-87
2022/10/02 05:28:20;;;;;;;;;;;17.30;65.40;;;;;;5028064;28;20269;-86
2022/10/02 05:30:49;;;;;;;;;;;17.20;65.20;;;;;;5023570;28;20299;-86
2022/10/02 05:33:28;;;;;;;;;;;17.30;65.30;;;;;;5012860;28;20558;-87
2022/10/02 05:35:57;;;;;;;;;;;17.20;65.20;;;;;;5011118;28;19920;-87
2022/10/02 05:38:58;;;;;;;;;;;17.20;65.00;;;;;;5010520;28;20287;-87
2022/10/02 05:41:26;;;;;;;;;;;17.20;65.10;;;;;;4942238;28;20334;-87
2022/10/02 05:43:58;;;;;;;;;;;17.20;65.30;;;;;;5013449;28;19917;-87
2022/10/02 05:46:24;;;;;;;;;;;17.20;65.40;;;;;;5010251;28;19929;-87
2022/10/02 05:48:53;;;;;;;;;;;17.30;65.60;;;;;;5029134;28;19964;-87
2022/10/02 05:51:38;;;;;;;;;;;17.40;65.60;;;;;;5028101;28;19917;-87
2022/10/02 05:54:24;;;;;;;;;;;17.40;65.70;;;;;;5027798;28;19918;-87
2022/10/02 05:56:53;;;;;;;;;;;17.50;65.90;;;;;;5021194;28;20438;-86
2022/10/02 05:59:25;;;;;;;;;;;17.70;66.00;;;;;;5023612;28;20380;-87
2022/10/02 06:01:51;;;;;;;;;;;17.80;66.00;;;;;;5007381;28;19925;-86
2022/10/02 06:04:24;;;;;;;;;;;17.80;66.00;;;;;;5023212;28;19976;-87
2022/10/02 06:06:52;;;;;;;;;;;17.90;66.00;;;;;;5024677;28;20339;-86
2022/10/02 06:09:23;;;;;;;;;;;18.00;66.00;;;;;;5026211;28;19921;-87
2022/10/02 06:11:51;;;;;;;;;;;18.00;66.10;;;;;;5011054;28;19917;-86
2022/10/02 06:14:35;;;;;;;;;;;18.20;66.20;;;;;;5025927;28;19921;-87
2022/10/02 06:17:04;;;;;;;;;;;18.30;66.30;;;;;;5010993;28;19914;-87
2022/10/02 06:19:41;;;;;;;;;;;18.30;66.50;;;;;;5027486;28;20008;-87
2022/10/02 06:22:11;;;;;;;;;;;18.40;66.50;;;;;;5010234;28;20062;-86
2022/10/02 06:24:46;;;;;;;;;;;18.50;66.60;;;;;;5010559;28;19917;-87
2022/10/02 06:27:14;;;;;;;;;;;18.70;66.50;;;;;;5028102;28;19921;-86
2022/10/02 06:29:40;;;;;;;;;;;18.70;66.60;;;;;;5022334;28;19921;-87
2022/10/02 06:32:14;;;;;;;;;;;18.80;66.50;;;;;;5028188;28;20011;-88
2022/10/02 06:34:40;;;;;;;;;;;18.90;66.50;;;;;;5028045;28;19997;-87
2022/10/02 06:37:26;;;;;;;;;;;19.00;66.50;;;;;;5009949;28;19959;-88
2022/10/02 06:40:12;;;;;;;;;;;19.10;66.60;;;;;;5023991;28;19928;-87
2022/10/02 06:43:00;;;;;;;;;;;19.20;66.70;;;;;;5029452;28;19943;-87
2022/10/02 06:45:33;;;;;;;;;;;19.30;66.70;;;;;;5031408;28;19933;-87
2022/10/02 06:48:12;;;;;;;;;;;19.50;66.70;;;;;;5014288;28;19917;-87
2022/10/02 06:50:43;;;;;;;;;;;19.60;66.60;;;;;;5014295;28;19917;-87
2022/10/02 06:53:14;;;;;;;;;;;19.70;66.60;;;;;;5031591;28;20287;-87
2022/10/02 06:55:44;;;;;;;;;;;19.80;66.60;;;;;;5031842;28;20356;-88
2022/10/02 06:58:16;;;;;;;;;;;19.90;66.40;;;;;;5013444;28;19921;-87
2022/10/02 07:00:50;;;;;;;;;;;19.90;66.20;;;;;;5025984;28;20443;-87
2022/10/02 07:03:28;;;;;;;;;;;20.00;66.20;;;;;;5013240;28;19925;-86
2022/10/02 07:06:09;;;;;;;;;;;20.00;66.10;;;;;;5027512;28;19921;-86
2022/10/02 07:08:38;;;;;;;;;;;20.10;66.10;;;;;;5031697;28;19929;-88
2022/10/02 07:11:22;;;;;;;;;;;20.20;66.00;;;;;;5015450;28;19913;-88
2022/10/02 07:14:02;;;;;;;;;;;20.30;66.20;;;;;;5004284;28;19925;-88
2022/10/02 07:16:46;;;;;;;;;;;20.30;66.00;;;;;;5028946;28;19967;-89
2022/10/02 07:19:30;;;;;;;;;;;20.40;66.20;;;;;;5030630;28;19944;-87
2022/10/02 07:21:59;;;;;;;;;;;20.50;66.10;;;;;;5009991;28;20007;-87
2022/10/02 07:24:43;;;;;;;;;;;20.60;66.10;;;;;;5013068;28;19928;-87
2022/10/02 07:27:19;;;;;;;;;;;20.60;66.00;;;;;;5031850;28;20517;-87
2022/10/02 07:29:54;;;;;;;;;;;20.70;66.20;;;;;;5013725;28;19930;-88
2022/10/02 07:32:25;;;;;;;;;;;20.90;67.70;;;;;;5013565;28;19913;-87
2022/10/02 07:34:59;;;;;;;;;;;21.30;67.90;;;;;;5013827;28;20043;-87
2022/10/02 07:37:43;;;;;;;;;;;21.40;67.00;;;;;;5030044;28;20364;-86
2022/10/02 07:40:19;;;;;;;;;;;21.50;66.50;;;;;;5030901;28;19917;-88
2022/10/02 07:42:47;;;;;;;;;;;21.60;66.90;;;;;;5008286;28;19917;-87
2022/10/02 07:45:26;;;;;;;;;;;21.80;66.90;;;;;;5031243;28;20047;-87
2022/10/02 07:48:01;;;;;;;;;;;21.90;67.00;;;;;;5031605;28;19917;-86
2022/10/02 07:50:34;;;;;;;;;;;22.10;66.90;;;;;;5012146;28;19984;-87
2022/10/02 07:53:14;;;;;;;;;;;22.30;66.70;;;;;;5031563;28;20371;-87
2022/10/02 07:55:42;;;;;;;;;;;22.30;66.30;;;;;;5007092;28;19917;-88
2022/10/02 07:58:37;;;;;;;;;;;22.40;66.30;;;;;;5012688;28;19960;-87
2022/10/02 08:01:06;;;;;;;;;;;22.40;66.20;;;;;;5019018;28;19917;-88
2022/10/02 08:03:34;;;;;;;;;;;22.40;66.20;;;;;;5023243;28;19913;-88
2022/10/02 08:06:00;;;;;;;;;;;22.40;66.10;;;;;;5014674;28;19971;-87
2022/10/02 08:08:34;;;;;;;;;;;22.40;66.40;;;;;;5032208;28;19913;-88
2022/10/02 08:11:14;;;;;;;;;;;22.50;66.60;;;;;;5032492;28;19913;-88
2022/10/02 08:13:45;;;;;;;;;;;22.60;67.00;;;;;;5030954;28;19957;-88
2022/10/02 08:16:12;;;;;;;;;;;22.70;67.20;;;;;;5014584;28;19917;-88
2022/10/02 08:18:40;;;;;;;;;;;22.90;67.10;;;;;;5016856;28;19917;-87
2022/10/02 08:21:11;;;;;;;;;;;23.00;66.70;;;;;;5012664;28;19960;-88
2022/10/02 08:23:36;;;;;;;;;;;23.20;67.40;;;;;;5009418;28;19980;-88
2022/10/02 08:26:02;;;;;;;;;;;23.40;68.40;;;;;;5015074;28;19976;-88
2022/10/02 08:28:34;;;;;;;;;;;23.80;68.90;;;;;;5028685;28;19923;-87
2022/10/02 08:31:00;;;;;;;;;;;24.20;68.40;;;;;;5027310;28;19947;-87
2022/10/02 08:33:29;;;;;;;;;;;24.50;67.40;;;;;;4994730;28;19914;-87
2022/10/02 08:36:05;;;;;;;;;;;24.60;66.80;;;;;;5012364;28;19940;-87
2022/10/02 08:38:34;;;;;;;;;;;24.80;66.70;;;;;;5015317;28;20395;-87
2022/10/02 08:41:03;;;;;;;;;;;24.80;65.70;;;;;;5024993;28;19967;-87
2022/10/02 08:43:29;;;;;;;;;;;24.90;66.20;;;;;;5011645;28;19917;-87
2022/10/02 08:46:05;;;;;;;;;;;25.10;66.90;;;;;;5024946;28;20339;-88
2022/10/02 08:48:53;;;;;;;;;;;25.30;67.10;;;;;;5003665;28;19917;-86
2022/10/02 08:51:25;;;;;;;;;;;25.60;67.10;;;;;;5029399;28;19917;-86
2022/10/02 08:54:05;;;;;;;;;;;26.00;68.00;;;;;;5011871;28;19920;-87
2022/10/02 08:56:37;;;;;;;;;;;26.50;68.30;;;;;;4993297;28;19929;-87
2022/10/02 08:59:18;;;;;;;;;;;26.90;67.50;;;;;;5010871;28;19921;-87
2022/10/02 09:02:02;;;;;;;;;;;27.20;66.20;;;;;;5011183;28;19913;-85
2022/10/02 09:04:48;;;;;;;;;;;27.30;65.20;;;;;;5000968;28;20023;-88
2022/10/02 09:07:14;;;;;;;;;;;27.30;65.20;;;;;;5021210;28;20059;-88
2022/10/02 09:09:46;;;;;;;;;;;27.20;64.80;;;;;;5014722;28;19927;-87
2022/10/02 09:12:32;;;;;;;;;;;27.10;64.80;;;;;;5011002;28;20476;-86
2022/10/02 09:15:06;;;;;;;;;;;27.00;64.60;;;;;;5019719;28;19924;-87
2022/10/02 09:17:43;;;;;;;;;;;26.80;64.20;;;;;;5034611;28;20311;-86
2022/10/02 09:20:14;;;;;;;;;;;26.70;64.60;;;;;;5019334;28;19914;-87
2022/10/02 09:22:57;;;;;;;;;;;26.90;65.80;;;;;;5007762;28;19920;-87
2022/10/02 09:25:23;;;;;;;;;;;27.10;66.10;;;;;;5006008;28;19921;-88
2022/10/02 09:27:51;;;;;;;;;;;27.30;65.90;;;;;;5031027;28;19936;-87
2022/10/02 09:30:29;;;;;;;;;;;27.30;65.50;;;;;;5030935;28;19929;-88
2022/10/02 09:33:07;;;;;;;;;;;27.30;65.20;;;;;;5018925;28;20015;-86
2022/10/02 09:35:52;;;;;;;;;;;27.20;64.80;;;;;;5011842;28;19913;-87
2022/10/02 09:38:36;;;;;;;;;;;27.20;65.20;;;;;;5010891;28;19991;-89
2022/10/02 09:41:22;;;;;;;;;;;27.20;64.70;;;;;;5030808;28;19948;-88
2022/10/02 09:43:58;;;;;;;;;;;27.10;64.40;;;;;;5010410;28;19945;-88
2022/10/02 09:46:32;;;;;;;;;;;26.90;64.90;;;;;;5011239;28;20427;-87
2022/10/02 09:48:58;;;;;;;;;;;26.90;65.90;;;;;;5012619;28;19917;-88
2022/10/02 09:51:42;;;;;;;;;;;26.90;65.80;;;;;;5028679;28;19920;-87
2022/10/02 09:54:20;;;;;;;;;;;27.00;65.60;;;;;;5021585;28;20015;-88
2022/10/02 09:57:05;;;;;;;;;;;27.00;65.80;;;;;;5012676;28;19919;-87
2022/10/02 09:59:49;;;;;;;;;;;27.40;67.00;;;;;;5023412;28;19927;-86
2022/10/02 10:02:18;;;;;;;;;;;28.00;67.20;;;;;;5030575;28;19924;-86
2022/10/02 10:04:45;;;;;;;;;;;28.40;66.30;;;;;;5009952;28;19921;-88
2022/10/02 10:07:29;;;;;;;;;;;28.80;66.50;;;;;;5011572;28;19921;-88
2022/10/02 10:10:17;;;;;;;;;;;29.30;66.00;;;;;;5030429;28;19945;-86
2022/10/02 10:12:48;;;;;;;;;;;29.30;65.10;;;;;;5013978;28;19960;-87
2022/10/02 10:15:32;;;;;;;;;;;29.40;64.40;;;;;;5015372;28;19928;-86
2022/10/02 10:18:08;;;;;;;;;;;29.30;63.90;;;;;;5016513;28;20028;-88
2022/10/02 10:21:00;;;;;;;;;;;29.20;64.40;;;;;;5040745;28;20081;-87
2022/10/02 10:23:45;;;;;;;;;;;29.30;64.40;;;;;;5030947;28;19975;-87
2022/10/02 10:26:15;;;;;;;;;;;29.50;64.00;;;;;;5030038;28;20028;-87
2022/10/02 10:28:49;;;;;;;;;;;30.00;65.40;;;;;;5030147;28;19921;-87
2022/10/02 10:31:33;;;;;;;;;;;30.50;65.40;;;;;;5015151;28;19920;-89
2022/10/02 10:34:17;;;;;;;;;;;31.20;65.10;;;;;;5027023;28;19917;-87
2022/10/02 10:39:52;;;;;;;;;;;31.20;62.20;;;;;;5034165;28;19960;-88
2022/10/02 10:42:36;;;;;;;;;;;30.80;61.30;;;;;;5034375;28;19979;-87
2022/10/02 10:45:07;;;;;;;;;;;30.40;60.30;;;;;;5014253;28;20386;-88
2022/10/02 10:47:39;;;;;;;;;;;30.20;60.60;;;;;;5025935;28;19928;-88
2022/10/02 10:50:22;;;;;;;;;;;30.20;60.50;;;;;;5008739;28;19950;-88
2022/10/02 10:52:59;;;;;;;;;;;30.30;61.90;;;;;;5026388;28;19936;-87
2022/10/02 10:55:45;;;;;;;;;;;30.70;62.40;;;;;;5035023;28;19913;-88
2022/10/02 10:58:25;;;;;;;;;;;31.10;61.20;;;;;;5031385;28;19921;-88
2022/10/02 11:00:59;;;;;;;;;;;31.40;60.20;;;;;;5014925;28;19913;-88
2022/10/02 11:03:37;;;;;;;;;;;31.70;59.80;;;;;;5030296;28;19993;-87
2022/10/02 11:06:21;;;;;;;;;;;32.00;58.40;;;;;;5034096;28;20451;-87
2022/10/02 11:09:06;;;;;;;;;;;32.10;55.80;;;;;;5025806;28;19924;-87
2022/10/02 11:11:34;;;;;;;;;;;31.80;55.60;;;;;;5030368;28;20431;-88
2022/10/02 11:14:18;;;;;;;;;;;31.80;56.30;;;;;;5032732;28;19916;-88
2022/10/02 11:17:02;;;;;;;;;;;31.50;56.00;;;;;;5011552;28;19999;-87
2022/10/02 11:19:46;;;;;;;;;;;31.10;54.20;;;;;;5030468;28;19925;-87
2022/10/02 11:22:26;;;;;;;;;;;30.50;54.60;;;;;;5013204;28;20372;-87
2022/10/02 11:25:08;;;;;;;;;;;29.90;54.90;;;;;;5031154;28;19921;-87
2022/10/02 11:27:43;;;;;;;;;;;29.60;55.40;;;;;;5027424;28;20283;-87
2022/10/02 11:30:22;;;;;;;;;;;29.20;55.80;;;;;;5012155;28;19924;-87
2022/10/02 11:33:09;;;;;;;;;;;28.80;55.90;;;;;;5025316;28;19956;-87
2022/10/02 11:35:47;;;;;;;;;;;28.40;54.80;;;;;;4943245;28;19940;-88
2022/10/02 11:38:37;;;;;;;;;;;28.00;54.60;;;;;;4959847;28;20038;-87
2022/10/02 11:41:21;;;;;;;;;;;27.50;54.90;;;;;;5013865;28;19996;-89
2022/10/02 11:43:50;;;;;;;;;;;27.10;54.00;;;;;;5033735;28;19917;-86
2022/10/02 11:46:38;;;;;;;;;;;26.80;54.80;;;;;;5003472;28;19928;-88
2022/10/02 11:49:07;;;;;;;;;;;26.70;56.00;;;;;;4972837;28;20830;-87
2022/10/02 11:51:47;;;;;;;;;;;26.80;55.10;;;;;;4977184;28;19917;-88
2022/10/02 11:54:32;;;;;;;;;;;27.00;55.60;;;;;;4970672;28;19921;-87
2022/10/02 11:57:13;;;;;;;;;;;27.50;56.10;;;;;;4973084;28;20040;-87
2022/10/02 12:00:04;;;;;;;;;;;27.90;54.70;;;;;;4994880;28;20287;-87
2022/10/02 12:02:34;;;;;;;;;;;28.00;54.40;;;;;;5019900;28;19943;-87
2022/10/02 12:05:04;;;;;;;;;;;28.10;53.10;;;;;;5011483;28;19909;-88
2022/10/02 12:07:44;;;;;;;;;;;28.40;54.30;;;;;;5031755;28;19913;-88
2022/10/02 12:10:19;;;;;;;;;;;28.40;52.70;;;;;;5033767;28;20423;-87
2022/10/02 12:13:03;;;;;;;;;;;28.20;53.00;;;;;;5015177;28;19917;-87
2022/10/02 12:15:36;;;;;;;;;;;28.40;53.20;;;;;;5031988;28;19913;-88
2022/10/02 12:18:02;;;;;;;;;;;28.40;54.00;;;;;;5014414;28;20051;-87
2022/10/02 12:29:14;;;;;;;;;;;29.50;52.00;;;;;;5031112;28;19959;-87
2022/10/02 12:31:57;;;;;;;;;;;29.60;51.70;;;;;;5029591;28;19917;-87
2022/10/02 12:34:26;;;;;;;;;;;29.50;49.90;;;;;;5029222;28;19917;-88
2022/10/02 12:37:01;;;;;;;;;;;29.20;49.90;;;;;;5030103;28;19914;-89
2022/10/02 12:39:42;;;;;;;;;;;28.80;50.70;;;;;;5030182;28;19956;-88
2022/10/02 12:42:27;;;;;;;;;;;28.50;50.30;;;;;;5030908;28;19917;-86
2022/10/02 12:45:07;;;;;;;;;;;28.20;49.60;;;;;;5011065;28;19924;-86
2022/10/02 12:47:39;;;;;;;;;;;27.80;50.60;;;;;;5043911;28;19952;-87
2022/10/02 12:50:22;;;;;;;;;;;27.50;51.50;;;;;;5011867;28;20285;-88
2022/10/02 12:52:53;;;;;;;;;;;27.20;50.40;;;;;;5030929;28;19917;-88
2022/10/02 12:55:44;;;;;;;;;;;26.80;50.00;;;;;;5032399;28;19913;-88
2022/10/02 12:58:30;;;;;;;;;;;26.80;51.10;;;;;;5014410;28;19921;-87
2022/10/02 13:01:20;;;;;;;;;;;27.00;51.60;;;;;;5015985;28;19952;-89
2022/10/02 13:04:00;;;;;;;;;;;26.90;50.00;;;;;;5032470;28;19913;-87
2022/10/02 13:06:45;;;;;;;;;;;26.70;50.40;;;;;;5032800;28;19921;-89
2022/10/02 13:09:13;;;;;;;;;;;26.40;48.90;;;;;;5032863;28;19996;-87
2022/10/02 13:11:54;;;;;;;;;;;26.00;48.00;;;;;;5031450;28;19959;-89
2022/10/02 13:14:31;;;;;;;;;;;25.80;49.00;;;;;;5033836;28;19913;-86
2022/10/02 13:17:15;;;;;;;;;;;25.60;48.90;;;;;;5014783;28;20318;-88
2022/10/02 13:19:48;;;;;;;;;;;25.40;48.50;;;;;;5015059;28;19924;-87
2022/10/02 13:22:27;;;;;;;;;;;25.40;48.80;;;;;;5014149;28;19944;-87
2022/10/02 13:24:53;;;;;;;;;;;25.40;48.00;;;;;;5014080;28;19913;-88
2022/10/02 13:27:39;;;;;;;;;;;25.50;47.40;;;;;;5013486;28;21478;-90
2022/10/02 13:30:25;;;;;;;;;;;25.70;47.00;;;;;;5031386;28;19939;-89
2022/10/02 13:33:07;;;;;;;;;;;25.70;46.80;;;;;;5011474;28;20284;-89
2022/10/02 13:35:59;;;;;;;;;;;25.60;44.80;;;;;;5016613;28;19917;-86
2022/10/02 13:38:57;;;;;;;;;;;25.40;44.60;;;;;;5007432;28;20376;-86
2022/10/02 13:41:41;;;;;;;;;;;25.10;45.40;;;;;;4952572;28;20598;-90
2022/10/02 13:44:25;;;;;;;;;;;24.90;45.50;;;;;;4996137;28;19924;-88
2022/10/02 13:47:10;;;;;;;;;;;24.70;45.10;;;;;;5014579;28;19921;-89
2022/10/02 13:49:54;;;;;;;;;;;24.40;45.90;;;;;;5031184;28;19921;-89
2022/10/02 13:52:25;;;;;;;;;;;24.30;46.70;;;;;;5032073;28;19971;-87
2022/10/02 13:54:56;;;;;;;;;;;24.10;46.50;;;;;;5031860;28;19955;-88
2022/10/02 13:57:36;;;;;;;;;;;23.90;46.60;;;;;;5014302;28;20007;-87
2022/10/02 14:00:09;;;;;;;;;;;23.70;47.40;;;;;;5030910;28;19909;-89
2022/10/02 14:03:07;;;;;;;;;;;23.50;48.20;;;;;;5031514;28;19979;-89
2022/10/02 14:05:48;;;;;;;;;;;23.30;48.20;;;;;;4992140;28;19932;-88
2022/10/02 14:08:32;;;;;;;;;;;23.20;50.00;;;;;;5031049;28;20008;-87
2022/10/02 14:11:23;;;;;;;;;;;23.00;50.50;;;;;;5030910;28;19909;-86
2022/10/02 14:13:55;;;;;;;;;;;22.90;50.40;;;;;;4997748;28;19917;-87
2022/10/02 14:16:32;;;;;;;;;;;22.80;50.80;;;;;;5012990;28;20011;-87
2022/10/02 14:19:17;;;;;;;;;;;22.80;51.20;;;;;;5013858;28;19967;-88
2022/10/02 14:21:51;;;;;;;;;;;22.80;50.80;;;;;;5031237;28;20268;-86
2022/10/02 14:27:18;;;;;;;;;;;22.70;51.50;;;;;;5030573;28;20000;-88
2022/10/02 14:29:54;;;;;;;;;;;22.60;52.20;;;;;;5012859;28;19997;-87
2022/10/02 14:32:23;;;;;;;;;;;22.70;52.00;;;;;;5013129;28;19972;-87
2022/10/02 14:34:48;;;;;;;;;;;22.60;52.40;;;;;;5048154;28;20423;-89
2022/10/02 14:37:23;;;;;;;;;;;22.60;52.30;;;;;;5032473;28;20016;-89
2022/10/02 14:39:48;;;;;;;;;;;22.60;51.90;;;;;;5033150;28;20348;-89
2022/10/02 14:42:20;;;;;;;;;;;22.70;51.90;;;;;;5050260;28;19919;-87
2022/10/02 14:45:04;;;;;;;;;;;22.70;52.30;;;;;;5026206;28;20607;-89
2022/10/02 14:47:36;;;;;;;;;;;22.90;51.30;;;;;;5012773;28;19955;-89
2022/10/02 14:50:14;;;;;;;;;;;23.00;50.20;;;;;;5012856;28;19916;-89
2022/10/02 14:52:50;;;;;;;;;;;23.10;50.50;;;;;;5012806;28;19924;-87
2022/10/02 14:55:15;;;;;;;;;;;23.30;50.60;;;;;;5013692;28;19909;-88
2022/10/02 14:57:44;;;;;;;;;;;23.40;50.40;;;;;;5012675;28;19940;-88
2022/10/02 15:00:09;;;;;;;;;;;23.50;49.10;;;;;;5037263;28;19919;-89
2022/10/02 15:02:42;;;;;;;;;;;23.60;48.10;;;;;;5051997;28;20346;-89
2022/10/02 15:05:27;;;;;;;;;;;23.60;47.80;;;;;;5035889;28;20383;-86
2022/10/02 15:07:52;;;;;;;;;;;23.70;48.00;;;;;;5036372;28;19927;-89
2022/10/02 15:10:20;;;;;;;;;;;23.60;47.90;;;;;;5053698;28;19913;-87
2022/10/02 15:12:49;;;;;;;;;;;23.60;47.30;;;;;;5053913;28;20386;-90
2022/10/02 15:15:21;;;;;;;;;;;23.30;49.00;;;;;;5054519;28;19916;-88